sensor_id;sensor_type;location;lat;lon;timestamp;pressure;altitude;pressure_sealevel;temperature;humidity
5126;BME280;63008;53.112;8.896;2022-12-29T00:01:37;100033.69;;;9.78;90.80
5126;BME280;63008;53.112;8.896;2022-12-29T00:03:38;100021.97;;;9.78;90.78
5126;BME280;63008;53.112;8.896;2022-12-29T00:05:39;100022.03;;;9.81;90.62
5126;BME280;63008;53.112;8.896;2022-12-29T00:07:40;100015.34;;;9.79;90.66
5126;BME280;63008;53.112;8.896;2022-12-29T00:09:41;100011.78;;;9.78;90.83
5126;BME280;63008;53.112;8.896;2022-12-29T00:11:42;100015.66;;;9.89;89.90
5126;BME280;63008;53.112;8.896;2022-12-29T00:13:43;100000.22;;;9.85;90.34
5126;BME280;63008;53.112;8.896;2022-12-29T00:16:03;100002.53;;;9.83;90.78
5126;BME280;63008;53.112;8.896;2022-12-29T00:18:07;100003.31;;;9.83;90.44
5126;BME280;63008;53.112;8.896;2022-12-29T00:20:08;99999.41;;;9.84;90.47
5126;BME280;63008;53.112;8.896;2022-12-29T00:22:38;99989.72;;;9.87;90.47
5126;BME280;63008;53.112;8.896;2022-12-29T00:24:58;99987.53;;;9.92;90.25
5126;BME280;63008;53.112;8.896;2022-12-29T00:29:21;99983.53;;;9.90;90.77
5126;BME280;63008;53.112;8.896;2022-12-29T00:31:41;99984.53;;;9.97;90.18
5126;BME280;63008;53.112;8.896;2022-12-29T00:34:00;99988.31;;;10.05;90.07
5126;BME280;63008;53.112;8.896;2022-12-29T00:36:24;99990.72;;;10.06;90.12
5126;BME280;63008;53.112;8.896;2022-12-29T00:38:28;99976.09;;;10.02;90.27
5126;BME280;63008;53.112;8.896;2022-12-29T00:40:48;99972.19;;;10.03;90.35
5126;BME280;63008;53.112;8.896;2022-12-29T00:43:08;99981.91;;;10.01;90.68
5126;BME280;63008;53.112;8.896;2022-12-29T00:45:27;99973.81;;;10.04;90.77
5126;BME280;63008;53.112;8.896;2022-12-29T00:47:28;99973.56;;;10.09;90.17
5126;BME280;63008;53.112;8.896;2022-12-29T00:49:30;99976.31;;;10.09;90.63
5126;BME280;63008;53.112;8.896;2022-12-29T00:51:31;99968.19;;;10.13;90.33
5126;BME280;63008;53.112;8.896;2022-12-29T00:53:32;99969.69;;;10.10;90.95
5126;BME280;63008;53.112;8.896;2022-12-29T00:55:36;99970.47;;;10.11;91.08
5126;BME280;63008;53.112;8.896;2022-12-29T00:57:37;99964.19;;;10.10;91.49
5126;BME280;63008;53.112;8.896;2022-12-29T00:59:40;99958.97;;;10.05;91.60
5126;BME280;63008;53.112;8.896;2022-12-29T01:01:41;99962.38;;;10.02;91.97
5126;BME280;63008;53.112;8.896;2022-12-29T01:03:42;99961.25;;;10.03;92.24
5126;BME280;63008;53.112;8.896;2022-12-29T01:05:43;99954.66;;;10.04;92.64
5126;BME280;63008;53.112;8.896;2022-12-29T01:07:44;99957.38;;;10.04;92.54
5126;BME280;63008;53.112;8.896;2022-12-29T01:09:45;99945.94;;;10.02;92.57
5126;BME280;63008;53.112;8.896;2022-12-29T01:12:07;99941.59;;;10.01;92.57
5126;BME280;63008;53.112;8.896;2022-12-29T01:14:08;99944.56;;;10.08;92.16
5126;BME280;63008;53.112;8.896;2022-12-29T01:16:09;99953.50;;;10.05;92.23
5126;BME280;63008;53.112;8.896;2022-12-29T01:18:10;99951.09;;;10.04;92.25
5126;BME280;63008;53.112;8.896;2022-12-29T01:20:11;99934.31;;;10.05;92.05
5126;BME280;63008;53.112;8.896;2022-12-29T01:22:12;99938.38;;;10.11;91.47
5126;BME280;63008;53.112;8.896;2022-12-29T01:24:15;99934.50;;;10.12;91.49
5126;BME280;63008;53.112;8.896;2022-12-29T01:26:17;99935.75;;;10.15;91.51
5126;BME280;63008;53.112;8.896;2022-12-29T01:28:18;99934.59;;;10.16;91.58
5126;BME280;63008;53.112;8.896;2022-12-29T01:30:19;99946.88;;;10.22;90.92
5126;BME280;63008;53.112;8.896;2022-12-29T01:32:21;99946.19;;;10.25;90.71
5126;BME280;63008;53.112;8.896;2022-12-29T01:34:21;99943.53;;;10.28;90.50
5126;BME280;63008;53.112;8.896;2022-12-29T01:36:23;99919.31;;;10.30;90.48
5126;BME280;63008;53.112;8.896;2022-12-29T01:38:24;99917.81;;;10.33;90.44
5126;BME280;63008;53.112;8.896;2022-12-29T01:40:25;99911.97;;;10.34;90.16
5126;BME280;63008;53.112;8.896;2022-12-29T01:42:26;99922.59;;;10.36;89.81
5126;BME280;63008;53.112;8.896;2022-12-29T01:44:50;99917.22;;;10.39;89.89
5126;BME280;63008;53.112;8.896;2022-12-29T01:46:51;99922.75;;;10.43;89.71
5126;BME280;63008;53.112;8.896;2022-12-29T01:48:58;99919.69;;;10.44;89.41
5126;BME280;63008;53.112;8.896;2022-12-29T01:51:00;99914.97;;;10.45;89.75
5126;BME280;63008;53.112;8.896;2022-12-29T01:53:09;99911.88;;;10.46;89.30
5126;BME280;63008;53.112;8.896;2022-12-29T01:55:11;99915.41;;;10.47;89.45
5126;BME280;63008;53.112;8.896;2022-12-29T01:57:20;99909.94;;;10.47;89.30
5126;BME280;63008;53.112;8.896;2022-12-29T01:59:26;99902.50;;;10.47;89.49
5126;BME280;63008;53.112;8.896;2022-12-29T02:01:27;99897.84;;;10.48;89.46
5126;BME280;63008;53.112;8.896;2022-12-29T02:03:30;99884.56;;;10.50;89.41
5126;BME280;63008;53.112;8.896;2022-12-29T02:05:38;99889.66;;;10.51;89.24
5126;BME280;63008;53.112;8.896;2022-12-29T02:07:41;99890.03;;;10.50;88.97
5126;BME280;63008;53.112;8.896;2022-12-29T02:09:43;99886.16;;;10.51;89.11
5126;BME280;63008;53.112;8.896;2022-12-29T02:11:47;99888.19;;;10.54;88.73
5126;BME280;63008;53.112;8.896;2022-12-29T02:13:48;99881.53;;;10.55;88.82
5126;BME280;63008;53.112;8.896;2022-12-29T02:23:13;99878.00;;;10.70;87.72
5126;BME280;63008;53.112;8.896;2022-12-29T02:28:16;99864.28;;;10.70;87.35
5126;BME280;63008;53.112;8.896;2022-12-29T02:30:44;99865.31;;;10.81;86.43
5126;BME280;63008;53.112;8.896;2022-12-29T02:32:53;99863.47;;;10.85;86.52
5126;BME280;63008;53.112;8.896;2022-12-29T02:35:22;99862.22;;;10.82;86.79
5126;BME280;63008;53.112;8.896;2022-12-29T02:37:31;99864.97;;;10.82;86.60
5126;BME280;63008;53.112;8.896;2022-12-29T02:41:58;99869.38;;;10.87;86.29
5126;BME280;63008;53.112;8.896;2022-12-29T02:44:13;99859.72;;;10.92;86.15
5126;BME280;63008;53.112;8.896;2022-12-29T02:46:44;99857.41;;;10.94;85.80
5126;BME280;63008;53.112;8.896;2022-12-29T02:48:48;99851.38;;;10.89;86.04
5126;BME280;63008;53.112;8.896;2022-12-29T02:51:00;99848.28;;;10.90;86.09
5126;BME280;63008;53.112;8.896;2022-12-29T02:53:09;99842.72;;;10.87;86.27
5126;BME280;63008;53.112;8.896;2022-12-29T02:55:11;99845.84;;;10.86;86.42
5126;BME280;63008;53.112;8.896;2022-12-29T02:57:33;99846.34;;;10.91;86.02
5126;BME280;63008;53.112;8.896;2022-12-29T02:59:35;99857.06;;;10.96;85.76
5126;BME280;63008;53.112;8.896;2022-12-29T03:02:14;99850.56;;;11.04;85.14
5126;BME280;63008;53.112;8.896;2022-12-29T03:04:39;99849.25;;;10.98;85.85
5126;BME280;63008;53.112;8.896;2022-12-29T03:06:56;99836.31;;;10.98;85.74
5126;BME280;63008;53.112;8.896;2022-12-29T03:09:21;99839.06;;;10.98;85.59
5126;BME280;63008;53.112;8.896;2022-12-29T03:11:28;99841.88;;;11.02;85.93
5126;BME280;63008;53.112;8.896;2022-12-29T03:13:56;99830.81;;;10.98;86.06
5126;BME280;63008;53.112;8.896;2022-12-29T03:16:32;99823.38;;;10.99;85.98
5126;BME280;63008;53.112;8.896;2022-12-29T03:18:49;99826.22;;;11.02;85.87
5126;BME280;63008;53.112;8.896;2022-12-29T03:21:02;99818.41;;;11.04;85.67
5126;BME280;63008;53.112;8.896;2022-12-29T03:23:05;99812.97;;;11.08;85.48
5126;BME280;63008;53.112;8.896;2022-12-29T03:25:12;99812.19;;;11.07;85.67
5126;BME280;63008;53.112;8.896;2022-12-29T03:27:27;99810.09;;;11.01;86.21
5126;BME280;63008;53.112;8.896;2022-12-29T03:29:31;99818.69;;;10.99;86.10
5126;BME280;63008;53.112;8.896;2022-12-29T03:31:36;99808.22;;;11.05;85.77
5126;BME280;63008;53.112;8.896;2022-12-29T03:33:38;99802.47;;;11.10;85.37
5126;BME280;63008;53.112;8.896;2022-12-29T03:35:42;99802.00;;;11.08;85.20
5126;BME280;63008;53.112;8.896;2022-12-29T03:37:50;99792.56;;;11.05;85.67
5126;BME280;63008;53.112;8.896;2022-12-29T03:39:53;99794.06;;;11.03;85.67
5126;BME280;63008;53.112;8.896;2022-12-29T03:41:59;99787.78;;;11.02;85.86
5126;BME280;63008;53.112;8.896;2022-12-29T03:44:01;99794.06;;;11.03;85.79
5126;BME280;63008;53.112;8.896;2022-12-29T03:46:03;99791.41;;;11.06;85.95
5126;BME280;63008;53.112;8.896;2022-12-29T03:48:04;99792.47;;;11.02;86.56
5126;BME280;63008;53.112;8.896;2022-12-29T03:50:05;99776.81;;;11.02;86.79
5126;BME280;63008;53.112;8.896;2022-12-29T03:52:09;99783.94;;;11.07;87.06
5126;BME280;63008;53.112;8.896;2022-12-29T03:54:10;99789.00;;;11.05;87.11
5126;BME280;63008;53.112;8.896;2022-12-29T03:56:11;99790.16;;;11.04;87.56
5126;BME280;63008;53.112;8.896;2022-12-29T03:58:12;99791.22;;;10.99;88.17
5126;BME280;63008;53.112;8.896;2022-12-29T04:00:13;99787.19;;;10.93;88.83
5126;BME280;63008;53.112;8.896;2022-12-29T04:02:14;99778.19;;;10.93;89.17
5126;BME280;63008;53.112;8.896;2022-12-29T04:04:15;99782.41;;;10.90;89.57
5126;BME280;63008;53.112;8.896;2022-12-29T04:06:16;99774.97;;;10.91;89.80
5126;BME280;63008;53.112;8.896;2022-12-29T04:08:17;99763.13;;;10.87;90.43
5126;BME280;63008;53.112;8.896;2022-12-29T04:10:18;99770.50;;;10.83;91.15
5126;BME280;63008;53.112;8.896;2022-12-29T04:12:19;99770.78;;;10.78;91.77
5126;BME280;63008;53.112;8.896;2022-12-29T04:14:20;99754.22;;;10.75;92.51
5126;BME280;63008;53.112;8.896;2022-12-29T04:16:21;99774.88;;;10.69;93.06
5126;BME280;63008;53.112;8.896;2022-12-29T04:18:22;99765.31;;;10.63;93.64
5126;BME280;63008;53.112;8.896;2022-12-29T04:20:23;99765.31;;;10.63;93.90
5126;BME280;63008;53.112;8.896;2022-12-29T04:22:43;99769.22;;;10.62;94.09
5126;BME280;63008;53.112;8.896;2022-12-29T04:24:44;99767.19;;;10.59;94.07
5126;BME280;63008;53.112;8.896;2022-12-29T04:26:45;99765.75;;;10.65;93.61
5126;BME280;63008;53.112;8.896;2022-12-29T04:28:46;99764.63;;;10.66;93.48
5126;BME280;63008;53.112;8.896;2022-12-29T04:30:47;99762.66;;;10.66;93.57
5126;BME280;63008;53.112;8.896;2022-12-29T04:32:48;99759.56;;;10.68;93.22
5126;BME280;63008;53.112;8.896;2022-12-29T04:34:49;99760.34;;;10.68;93.14
5126;BME280;63008;53.112;8.896;2022-12-29T04:36:50;99760.25;;;10.80;92.19
5126;BME280;63008;53.112;8.896;2022-12-29T04:38:51;99757.78;;;10.75;92.72
5126;BME280;63008;53.112;8.896;2022-12-29T04:40:52;99744.06;;;10.75;92.31
5126;BME280;63008;53.112;8.896;2022-12-29T04:42:52;99741.75;;;10.77;92.31
5126;BME280;63008;53.112;8.896;2022-12-29T04:44:53;99749.91;;;10.74;92.29
5126;BME280;63008;53.112;8.896;2022-12-29T04:46:54;99758.56;;;10.76;91.87
5126;BME280;63008;53.112;8.896;2022-12-29T04:48:56;99763.06;;;10.84;91.04
5126;BME280;63008;53.112;8.896;2022-12-29T04:50:57;99766.59;;;10.84;91.14
5126;BME280;63008;53.112;8.896;2022-12-29T04:52:58;99776.50;;;10.88;90.97
5126;BME280;63008;53.112;8.896;2022-12-29T04:54:58;99762.78;;;10.88;90.71
5126;BME280;63008;53.112;8.896;2022-12-29T04:56:59;99769.94;;;10.93;90.33
5126;BME280;63008;53.112;8.896;2022-12-29T04:59:01;99768.50;;;10.99;89.46
5126;BME280;63008;53.112;8.896;2022-12-29T05:01:02;99762.41;;;11.09;88.20
5126;BME280;63008;53.112;8.896;2022-12-29T05:03:03;99759.75;;;11.12;87.43
5126;BME280;63008;53.112;8.896;2022-12-29T05:05:05;99759.09;;;11.19;86.73
5126;BME280;63008;53.112;8.896;2022-12-29T05:07:06;99775.78;;;11.10;87.72
5126;BME280;63008;53.112;8.896;2022-12-29T05:09:07;99762.88;;;11.11;87.13
5126;BME280;63008;53.112;8.896;2022-12-29T05:11:08;99766.59;;;11.22;86.51
5126;BME280;63008;53.112;8.896;2022-12-29T05:13:09;99767.69;;;11.17;86.83
5126;BME280;63008;53.112;8.896;2022-12-29T05:15:10;99766.56;;;11.18;87.40
5126;BME280;63008;53.112;8.896;2022-12-29T05:17:12;99766.81;;;11.13;88.46
5126;BME280;63008;53.112;8.896;2022-12-29T05:19:13;99765.16;;;11.09;88.97
5126;BME280;63008;53.112;8.896;2022-12-29T05:21:14;99763.34;;;10.97;89.98
5126;BME280;63008;53.112;8.896;2022-12-29T05:23:15;99752.94;;;10.88;90.72
5126;BME280;63008;53.112;8.896;2022-12-29T05:25:16;99766.59;;;10.84;90.50
5126;BME280;63008;53.112;8.896;2022-12-29T05:27:17;99786.66;;;10.88;89.63
5126;BME280;63008;53.112;8.896;2022-12-29T05:29:18;99770.41;;;10.80;91.43
5126;BME280;63008;53.112;8.896;2022-12-29T05:31:19;99769.41;;;10.69;91.66
5126;BME280;63008;53.112;8.896;2022-12-29T05:33:20;99761.38;;;10.60;92.52
5126;BME280;63008;53.112;8.896;2022-12-29T05:35:21;99766.41;;;10.58;92.45
5126;BME280;63008;53.112;8.896;2022-12-29T05:37:22;99774.03;;;10.49;92.46
5126;BME280;63008;53.112;8.896;2022-12-29T05:39:25;99766.97;;;10.48;92.24
5126;BME280;63008;53.112;8.896;2022-12-29T05:41:26;99771.13;;;10.42;93.31
5126;BME280;63008;53.112;8.896;2022-12-29T05:43:27;99775.47;;;10.43;93.01
5126;BME280;63008;53.112;8.896;2022-12-29T05:45:28;99776.63;;;10.42;93.01
5126;BME280;63008;53.112;8.896;2022-12-29T05:47:29;99776.97;;;10.41;93.48
5126;BME280;63008;53.112;8.896;2022-12-29T05:49:30;99791.13;;;10.43;93.21
5126;BME280;63008;53.112;8.896;2022-12-29T05:51:31;99789.19;;;10.43;93.49
5126;BME280;63008;53.112;8.896;2022-12-29T05:53:32;99785.63;;;10.43;93.86
5126;BME280;63008;53.112;8.896;2022-12-29T05:55:34;99793.84;;;10.43;94.03
5126;BME280;63008;53.112;8.896;2022-12-29T05:57:35;99779.72;;;10.41;94.07
5126;BME280;63008;53.112;8.896;2022-12-29T05:59:36;99765.91;;;10.37;94.16
5126;BME280;63008;53.112;8.896;2022-12-29T06:01:37;99772.19;;;10.38;94.70
5126;BME280;63008;53.112;8.896;2022-12-29T06:03:38;99773.78;;;10.39;94.65
5126;BME280;63008;53.112;8.896;2022-12-29T06:05:38;99763.16;;;10.37;94.83
5126;BME280;63008;53.112;8.896;2022-12-29T06:07:39;99764.50;;;10.43;94.32
5126;BME280;63008;53.112;8.896;2022-12-29T06:09:40;99755.56;;;10.46;93.94
5126;BME280;63008;53.112;8.896;2022-12-29T06:11:41;99756.84;;;10.52;93.60
5126;BME280;63008;53.112;8.896;2022-12-29T06:13:43;99751.75;;;10.51;93.40
5126;BME280;63008;53.112;8.896;2022-12-29T06:15:44;99749.88;;;10.55;93.17
5126;BME280;63008;53.112;8.896;2022-12-29T06:17:45;99757.28;;;10.54;93.44
5126;BME280;63008;53.112;8.896;2022-12-29T06:19:47;99748.19;;;10.50;93.91
5126;BME280;63008;53.112;8.896;2022-12-29T06:21:48;99754.84;;;10.49;93.84
5126;BME280;63008;53.112;8.896;2022-12-29T06:23:49;99750.75;;;10.59;93.06
5126;BME280;63008;53.112;8.896;2022-12-29T06:25:50;99745.88;;;10.52;93.61
5126;BME280;63008;53.112;8.896;2022-12-29T06:27:50;99741.22;;;10.53;93.91
5126;BME280;63008;53.112;8.896;2022-12-29T06:29:51;99732.53;;;10.51;94.11
5126;BME280;63008;53.112;8.896;2022-12-29T06:31:52;99738.03;;;10.51;93.80
5126;BME280;63008;53.112;8.896;2022-12-29T06:33:56;99737.06;;;10.43;94.41
5126;BME280;63008;53.112;8.896;2022-12-29T06:35:57;99745.22;;;10.40;94.90
5126;BME280;63008;53.112;8.896;2022-12-29T06:37:58;99736.69;;;10.45;94.35
5126;BME280;63008;53.112;8.896;2022-12-29T06:39:59;99755.97;;;10.48;93.85
5126;BME280;63008;53.112;8.896;2022-12-29T06:42:00;99739.81;;;10.43;94.10
5126;BME280;63008;53.112;8.896;2022-12-29T06:44:01;99744.59;;;10.46;93.90
5126;BME280;63008;53.112;8.896;2022-12-29T06:46:02;99754.41;;;10.47;93.91
5126;BME280;63008;53.112;8.896;2022-12-29T06:48:03;99752.09;;;10.49;93.70
5126;BME280;63008;53.112;8.896;2022-12-29T06:50:07;99754.47;;;10.51;93.68
5126;BME280;63008;53.112;8.896;2022-12-29T06:52:08;99763.78;;;10.46;93.90
5126;BME280;63008;53.112;8.896;2022-12-29T06:54:09;99771.19;;;10.46;94.40
5126;BME280;63008;53.112;8.896;2022-12-29T06:56:10;99793.41;;;10.41;94.68
5126;BME280;63008;53.112;8.896;2022-12-29T06:58:11;99803.25;;;10.42;95.22
5126;BME280;63008;53.112;8.896;2022-12-29T07:00:13;99802.81;;;10.40;95.92
5126;BME280;63008;53.112;8.896;2022-12-29T07:02:14;99805.44;;;10.36;96.54
5126;BME280;63008;53.112;8.896;2022-12-29T07:04:15;99798.66;;;10.30;97.15
5126;BME280;63008;53.112;8.896;2022-12-29T07:06:16;99790.09;;;10.32;97.89
5126;BME280;63008;53.112;8.896;2022-12-29T07:08:17;99784.06;;;10.26;97.62
5126;BME280;63008;53.112;8.896;2022-12-29T07:10:18;99789.56;;;10.26;97.31
5126;BME280;63008;53.112;8.896;2022-12-29T07:12:19;99786.81;;;10.26;97.57
5126;BME280;63008;53.112;8.896;2022-12-29T07:14:20;99781.66;;;10.25;97.52
5126;BME280;63008;53.112;8.896;2022-12-29T07:16:21;99775.75;;;10.23;97.02
5126;BME280;63008;53.112;8.896;2022-12-29T07:18:22;99782.19;;;10.30;95.98
5126;BME280;63008;53.112;8.896;2022-12-29T07:20:23;99782.91;;;10.27;96.05
5126;BME280;63008;53.112;8.896;2022-12-29T07:22:24;99777.25;;;10.20;96.25
5126;BME280;63008;53.112;8.896;2022-12-29T07:24:25;99784.25;;;10.18;96.15
5126;BME280;63008;53.112;8.896;2022-12-29T07:26:26;99782.38;;;10.22;95.43
5126;BME280;63008;53.112;8.896;2022-12-29T07:28:27;99790.44;;;10.15;95.37
5126;BME280;63008;53.112;8.896;2022-12-29T07:30:28;99794.34;;;10.14;94.96
5126;BME280;63008;53.112;8.896;2022-12-29T07:32:32;99798.91;;;10.10;94.65
5126;BME280;63008;53.112;8.896;2022-12-29T07:34:33;99808.22;;;10.05;94.67
5126;BME280;63008;53.112;8.896;2022-12-29T07:36:34;99806.50;;;10.01;94.57
5126;BME280;63008;53.112;8.896;2022-12-29T07:38:35;99816.59;;;9.97;94.73
5126;BME280;63008;53.112;8.896;2022-12-29T07:40:36;99822.84;;;9.97;94.51
5126;BME280;63008;53.112;8.896;2022-12-29T07:42:37;99816.81;;;9.92;95.06
5126;BME280;63008;53.112;8.896;2022-12-29T07:44:38;99815.94;;;9.88;95.11
5126;BME280;63008;53.112;8.896;2022-12-29T07:46:39;99821.69;;;9.98;93.99
5126;BME280;63008;53.112;8.896;2022-12-29T07:48:40;99814.28;;;9.99;93.51
5126;BME280;63008;53.112;8.896;2022-12-29T07:50:41;99824.44;;;9.98;93.49
5126;BME280;63008;53.112;8.896;2022-12-29T07:52:42;99834.56;;;10.10;92.45
5126;BME280;63008;53.112;8.896;2022-12-29T07:54:43;99833.78;;;10.09;93.50
5126;BME280;63008;53.112;8.896;2022-12-29T07:56:45;99831.75;;;10.06;92.75
5126;BME280;63008;53.112;8.896;2022-12-29T07:58:46;99856.91;;;10.12;91.36
5126;BME280;63008;53.112;8.896;2022-12-29T08:00:46;99854.88;;;10.09;91.88
5126;BME280;63008;53.112;8.896;2022-12-29T08:02:48;99851.19;;;10.17;90.75
5126;BME280;63008;53.112;8.896;2022-12-29T08:04:49;99842.16;;;10.16;90.71
5126;BME280;63008;53.112;8.896;2022-12-29T08:06:50;99850.66;;;10.11;90.57
5126;BME280;63008;53.112;8.896;2022-12-29T08:08:51;99852.53;;;10.07;90.62
5126;BME280;63008;53.112;8.896;2022-12-29T08:10:52;99859.16;;;10.06;90.35
5126;BME280;63008;53.112;8.896;2022-12-29T08:12:53;99837.91;;;10.03;90.36
5126;BME280;63008;53.112;8.896;2022-12-29T08:14:54;99848.41;;;10.01;90.52
5126;BME280;63008;53.112;8.896;2022-12-29T08:16:55;99855.69;;;10.09;89.33
5126;BME280;63008;53.112;8.896;2022-12-29T08:18:56;99860.50;;;10.00;89.90
5126;BME280;63008;53.112;8.896;2022-12-29T08:21:02;99865.09;;;9.96;89.90
5126;BME280;63008;53.112;8.896;2022-12-29T08:23:03;99858.22;;;10.02;88.24
5126;BME280;63008;53.112;8.896;2022-12-29T08:25:05;99864.53;;;10.03;88.22
5126;BME280;63008;53.112;8.896;2022-12-29T08:27:06;99867.94;;;10.00;88.72
5126;BME280;63008;53.112;8.896;2022-12-29T08:29:07;99870.69;;;10.00;87.68
5126;BME280;63008;53.112;8.896;2022-12-29T08:31:08;99878.81;;;9.96;88.48
5126;BME280;63008;53.112;8.896;2022-12-29T08:33:09;99882.25;;;9.93;88.82
5126;BME280;63008;53.112;8.896;2022-12-29T08:35:10;99880.66;;;9.92;88.37
5126;BME280;63008;53.112;8.896;2022-12-29T08:37:11;99891.72;;;9.96;87.85
5126;BME280;63008;53.112;8.896;2022-12-29T08:39:12;99888.50;;;10.06;86.80
5126;BME280;63008;53.112;8.896;2022-12-29T08:41:13;99894.78;;;10.06;86.90
5126;BME280;63008;53.112;8.896;2022-12-29T08:43:14;99890.66;;;10.00;86.89
5126;BME280;63008;53.112;8.896;2022-12-29T08:45:15;99890.53;;;10.09;85.56
5126;BME280;63008;53.112;8.896;2022-12-29T08:47:16;99894.78;;;10.06;85.83
5126;BME280;63008;53.112;8.896;2022-12-29T08:49:17;99903.09;;;10.10;85.19
5126;BME280;63008;53.112;8.896;2022-12-29T08:51:18;99897.25;;;10.11;85.43
5126;BME280;63008;53.112;8.896;2022-12-29T08:53:20;99903.19;;;10.13;84.87
5126;BME280;63008;53.112;8.896;2022-12-29T08:55:21;99895.06;;;10.17;85.19
5126;BME280;63008;53.112;8.896;2022-12-29T08:57:22;99903.28;;;10.17;85.33
5126;BME280;63008;53.112;8.896;2022-12-29T08:59:23;99902.13;;;10.18;84.76
5126;BME280;63008;53.112;8.896;2022-12-29T09:01:24;99900.72;;;10.24;84.29
5126;BME280;63008;53.112;8.896;2022-12-29T09:03:26;99911.78;;;10.27;83.50
5126;BME280;63008;53.112;8.896;2022-12-29T09:05:26;99898.41;;;10.26;84.80
5126;BME280;63008;53.112;8.896;2022-12-29T09:07:27;99913.88;;;10.18;85.11
5126;BME280;63008;53.112;8.896;2022-12-29T09:09:28;99908.34;;;10.30;83.41
5126;BME280;63008;53.112;8.896;2022-12-29T09:11:29;99896.66;;;10.33;83.20
5126;BME280;63008;53.112;8.896;2022-12-29T09:13:30;99903.56;;;10.27;83.30
5126;BME280;63008;53.112;8.896;2022-12-29T09:15:31;99909.38;;;10.26;84.13
5126;BME280;63008;53.112;8.896;2022-12-29T09:17:32;99912.94;;;10.26;83.42
5126;BME280;63008;53.112;8.896;2022-12-29T09:19:44;99919.47;;;10.37;83.37
5126;BME280;63008;53.112;8.896;2022-12-29T09:21:44;99940.97;;;10.35;82.76
5126;BME280;63008;53.112;8.896;2022-12-29T09:23:45;99936.63;;;10.34;83.42
5126;BME280;63008;53.112;8.896;2022-12-29T09:25:47;99933.56;;;10.36;82.90
5126;BME280;63008;53.112;8.896;2022-12-29T09:27:48;99941.78;;;10.36;82.73
5126;BME280;63008;53.112;8.896;2022-12-29T09:29:49;99939.31;;;10.31;82.93
5126;BME280;63008;53.112;8.896;2022-12-29T09:31:50;99931.88;;;10.31;82.74
5126;BME280;63008;53.112;8.896;2022-12-29T09:33:51;99937.19;;;10.24;83.40
5126;BME280;63008;53.112;8.896;2022-12-29T09:35:55;99924.19;;;10.37;81.62
5126;BME280;63008;53.112;8.896;2022-12-29T09:37:56;99927.47;;;10.42;81.09
5126;BME280;63008;53.112;8.896;2022-12-29T09:39:57;99919.31;;;10.46;80.59
5126;BME280;63008;53.112;8.896;2022-12-29T09:42:07;99921.97;;;10.58;79.71
5126;BME280;63008;53.112;8.896;2022-12-29T09:44:23;99939.75;;;10.48;81.06
5126;BME280;63008;53.112;8.896;2022-12-29T09:46:28;99943.75;;;10.51;80.29
5126;BME280;63008;53.112;8.896;2022-12-29T09:48:34;99932.16;;;10.57;79.85
5126;BME280;63008;53.112;8.896;2022-12-29T09:50:38;99938.34;;;10.54;79.64
5126;BME280;63008;53.112;8.896;2022-12-29T09:52:48;99942.78;;;10.59;79.26
5126;BME280;63008;53.112;8.896;2022-12-29T09:54:55;99933.22;;;10.53;78.96
5126;BME280;63008;53.112;8.896;2022-12-29T09:56:57;99935.25;;;10.56;79.25
5126;BME280;63008;53.112;8.896;2022-12-29T09:59:06;99938.88;;;10.44;79.75
5126;BME280;63008;53.112;8.896;2022-12-29T10:03:22;99948.97;;;10.56;78.95
5126;BME280;63008;53.112;8.896;2022-12-29T10:05:40;99940.28;;;10.69;77.98
5126;BME280;63008;53.112;8.896;2022-12-29T10:07:57;99943.84;;;10.70;78.78
5126;BME280;63008;53.112;8.896;2022-12-29T10:10:32;99937.66;;;10.73;78.79
5126;BME280;63008;53.112;8.896;2022-12-29T10:15:17;99926.22;;;10.71;77.83
5126;BME280;63008;53.112;8.896;2022-12-29T10:20:16;99929.44;;;10.57;78.60
5126;BME280;63008;53.112;8.896;2022-12-29T10:24:30;99924.88;;;10.49;78.22
5126;BME280;63008;53.112;8.896;2022-12-29T10:26:37;99916.81;;;10.56;76.13
5126;BME280;63008;53.112;8.896;2022-12-29T10:28:44;99924.19;;;10.52;77.22
5126;BME280;63008;53.112;8.896;2022-12-29T10:30:48;99928.88;;;10.52;78.15
5126;BME280;63008;53.112;8.896;2022-12-29T10:32:56;99934.63;;;10.47;77.37
5126;BME280;63008;53.112;8.896;2022-12-29T10:35:04;99930.09;;;10.54;77.29
5126;BME280;63008;53.112;8.896;2022-12-29T10:37:14;99933.03;;;10.61;76.69
5126;BME280;63008;53.112;8.896;2022-12-29T10:39:28;99943.59;;;10.59;76.08
5126;BME280;63008;53.112;8.896;2022-12-29T10:41:39;99935.88;;;10.49;76.82
5126;BME280;63008;53.112;8.896;2022-12-29T10:43:47;99945.88;;;10.57;75.98
5126;BME280;63008;53.112;8.896;2022-12-29T10:45:48;99943.31;;;10.49;77.40
5126;BME280;63008;53.112;8.896;2022-12-29T10:50:00;99941.88;;;10.39;78.31
5126;BME280;63008;53.112;8.896;2022-12-29T10:52:02;99937.00;;;10.48;78.15
5126;BME280;63008;53.112;8.896;2022-12-29T10:56:35;99954.97;;;10.46;80.50
5126;BME280;63008;53.112;8.896;2022-12-29T10:58:36;99948.31;;;10.47;79.32
5126;BME280;63008;53.112;8.896;2022-12-29T11:00:38;99941.50;;;10.41;79.50
5126;BME280;63008;53.112;8.896;2022-12-29T11:05:33;99940.09;;;10.31;80.57
5126;BME280;63008;53.112;8.896;2022-12-29T11:07:36;99940.81;;;10.28;81.29
5126;BME280;63008;53.112;8.896;2022-12-29T11:09:39;99934.94;;;10.30;81.27
5126;BME280;63008;53.112;8.896;2022-12-29T11:11:53;99938.22;;;10.35;80.60
5126;BME280;63008;53.112;8.896;2022-12-29T11:14:07;99940.44;;;10.30;81.98
5126;BME280;63008;53.112;8.896;2022-12-29T11:16:30;99936.19;;;10.32;81.07
5126;BME280;63008;53.112;8.896;2022-12-29T11:18:49;99928.19;;;10.39;80.90
5126;BME280;63008;53.112;8.896;2022-12-29T11:20:58;99931.44;;;10.45;80.84
5126;BME280;63008;53.112;8.896;2022-12-29T11:23:31;99930.81;;;10.51;80.77
5126;BME280;63008;53.112;8.896;2022-12-29T11:25:39;99925.88;;;10.57;80.24
5126;BME280;63008;53.112;8.896;2022-12-29T11:28:13;99923.13;;;10.57;78.79
5126;BME280;63008;53.112;8.896;2022-12-29T11:30:26;99921.34;;;10.64;78.38
5126;BME280;63008;53.112;8.896;2022-12-29T11:32:33;99926.56;;;10.69;78.09
5126;BME280;63008;53.112;8.896;2022-12-29T11:34:40;99927.44;;;10.73;77.85
5126;BME280;63008;53.112;8.896;2022-12-29T11:36:44;99923.59;;;10.74;77.36
5126;BME280;63008;53.112;8.896;2022-12-29T11:38:57;99927.03;;;10.87;76.49
5126;BME280;63008;53.112;8.896;2022-12-29T11:41:04;99928.00;;;10.94;76.48
5126;BME280;63008;53.112;8.896;2022-12-29T11:43:32;99940.56;;;10.95;75.96